sensor_id;sensor_type;location;lat;lon;timestamp;P1;durP1;ratioP1;P2;durP2;ratioP2
10473;SDS011;5284;50.446;7.904;2023-08-20T03:12:30;14.57;;;5.40;;
10473;SDS011;5284;50.446;7.904;2023-08-20T03:17:33;11.65;;;6.22;;
10473;SDS011;5284;50.446;7.904;2023-08-20T03:22:37;12.95;;;5.97;;
10473;SDS011;5284;50.446;7.904;2023-08-20T03:27:42;12.18;;;5.90;;
10473;SDS011;5284;50.446;7.904;2023-08-20T03:32:45;16.33;;;6.25;;
10473;SDS011;5284;50.446;7.904;2023-08-20T03:37:49;11.68;;;5.63;;
10473;SDS011;5284;50.446;7.904;2023-08-20T03:42:53;12.45;;;6.20;;
10473;SDS011;5284;50.446;7.904;2023-08-20T03:47:58;9.20;;;5.73;;
10473;SDS011;5284;50.446;7.904;2023-08-20T03:53:02;11.38;;;5.38;;
10473;SDS011;5284;50.446;7.904;2023-08-20T03:58:07;15.70;;;6.00;;
10473;SDS011;5284;50.446;7.904;2023-08-20T04:03:10;20.02;;;5.45;;
10473;SDS011;5284;50.446;7.904;2023-08-20T04:08:14;7.35;;;4.53;;
10473;SDS011;5284;50.446;7.904;2023-08-20T04:13:18;8.93;;;4.50;;
10473;SDS011;5284;50.446;7.904;2023-08-20T04:18:21;12.80;;;4.63;;
10473;SDS011;5284;50.446;7.904;2023-08-20T04:23:25;13.60;;;5.78;;
10473;SDS011;5284;50.446;7.904;2023-08-20T04:28:31;10.50;;;5.38;;
10473;SDS011;5284;50.446;7.904;2023-08-20T04:33:36;7.83;;;5.07;;
10473;SDS011;5284;50.446;7.904;2023-08-20T04:38:39;6.10;;;3.88;;
10473;SDS011;5284;50.446;7.904;2023-08-20T04:43:43;17.77;;;4.53;;
10473;SDS011;5284;50.446;7.904;2023-08-20T04:48:47;8.15;;;4.55;;
10473;SDS011;5284;50.446;7.904;2023-08-20T04:53:50;11.43;;;5.60;;
10473;SDS011;5284;50.446;7.904;2023-08-20T04:58:55;11.65;;;5.32;;
10473;SDS011;5284;50.446;7.904;2023-08-20T05:04:27;9.57;;;4.90;;
10473;SDS011;5284;50.446;7.904;2023-08-20T05:09:30;8.60;;;4.28;;
10473;SDS011;5284;50.446;7.904;2023-08-20T05:14:35;13.40;;;4.82;;
10473;SDS011;5284;50.446;7.904;2023-08-20T05:19:39;9.15;;;4.18;;
10473;SDS011;5284;50.446;7.904;2023-08-20T05:24:43;15.82;;;5.55;;
10473;SDS011;5284;50.446;7.904;2023-08-20T05:29:48;6.75;;;4.35;;
10473;SDS011;5284;50.446;7.904;2023-08-20T05:34:52;9.82;;;4.75;;
10473;SDS011;5284;50.446;7.904;2023-08-20T05:39:55;9.93;;;5.25;;
10473;SDS011;5284;50.446;7.904;2023-08-20T05:45:01;13.00;;;5.60;;
10473;SDS011;5284;50.446;7.904;2023-08-20T05:50:04;18.30;;;5.28;;
10473;SDS011;5284;50.446;7.904;2023-08-20T05:55:10;12.57;;;5.43;;
10473;SDS011;5284;50.446;7.904;2023-08-20T06:00:14;11.65;;;5.18;;
10473;SDS011;5284;50.446;7.904;2023-08-20T06:05:21;11.43;;;5.85;;
10473;SDS011;5284;50.446;7.904;2023-08-20T06:10:24;12.93;;;5.53;;
10473;SDS011;5284;50.446;7.904;2023-08-20T06:15:31;20.73;;;6.82;;
10473;SDS011;5284;50.446;7.904;2023-08-20T06:20:34;19.65;;;9.00;;
10473;SDS011;5284;50.446;7.904;2023-08-20T06:25:37;26.17;;;10.35;;
10473;SDS011;5284;50.446;7.904;2023-08-20T06:30:41;24.83;;;9.15;;
10473;SDS011;5284;50.446;7.904;2023-08-20T06:35:44;19.00;;;8.15;;
10473;SDS011;5284;50.446;7.904;2023-08-20T06:40:47;16.35;;;7.85;;
10473;SDS011;5284;50.446;7.904;2023-08-20T06:45:52;17.35;;;6.57;;
10473;SDS011;5284;50.446;7.904;2023-08-20T06:50:55;18.98;;;7.30;;
10473;SDS011;5284;50.446;7.904;2023-08-20T06:55:58;12.45;;;8.15;;
10473;SDS011;5284;50.446;7.904;2023-08-20T07:01:03;20.95;;;7.63;;
10473;SDS011;5284;50.446;7.904;2023-08-20T07:06:10;18.65;;;8.07;;
10473;SDS011;5284;50.446;7.904;2023-08-20T07:16:20;22.02;;;7.50;;
10473;SDS011;5284;50.446;7.904;2023-08-20T07:21:25;11.83;;;6.20;;
10473;SDS011;5284;50.446;7.904;2023-08-20T07:26:28;18.27;;;7.25;;
10473;SDS011;5284;50.446;7.904;2023-08-20T07:31:34;12.52;;;6.93;;
10473;SDS011;5284;50.446;7.904;2023-08-20T07:36:37;19.88;;;7.07;;
10473;SDS011;5284;50.446;7.904;2023-08-20T07:41:40;13.20;;;6.75;;
10473;SDS011;5284;50.446;7.904;2023-08-20T07:46:46;23.20;;;7.32;;
10473;SDS011;5284;50.446;7.904;2023-08-20T07:51:49;15.90;;;7.05;;
10473;SDS011;5284;50.446;7.904;2023-08-20T07:56:54;10.93;;;5.70;;
10473;SDS011;5284;50.446;7.904;2023-08-20T08:01:58;14.15;;;6.70;;
10473;SDS011;5284;50.446;7.904;2023-08-20T08:07:03;9.50;;;5.55;;
10473;SDS011;5284;50.446;7.904;2023-08-20T08:12:07;17.42;;;6.07;;
10473;SDS011;5284;50.446;7.904;2023-08-20T08:17:12;15.80;;;6.13;;
10473;SDS011;5284;50.446;7.904;2023-08-20T08:22:15;11.18;;;5.45;;
10473;SDS011;5284;50.446;7.904;2023-08-20T08:27:22;23.58;;;5.97;;
10473;SDS011;5284;50.446;7.904;2023-08-20T08:32:26;15.85;;;5.50;;
10473;SDS011;5284;50.446;7.904;2023-08-20T08:37:29;10.25;;;5.72;;
10473;SDS011;5284;50.446;7.904;2023-08-20T08:42:32;21.48;;;6.32;;
10473;SDS011;5284;50.446;7.904;2023-08-20T08:47:39;11.15;;;6.15;;
10473;SDS011;5284;50.446;7.904;2023-08-20T08:52:42;11.88;;;6.07;;
10473;SDS011;5284;50.446;7.904;2023-08-20T08:57:49;16.60;;;5.68;;
10473;SDS011;5284;50.446;7.904;2023-08-20T09:02:54;9.10;;;6.10;;
10473;SDS011;5284;50.446;7.904;2023-08-20T09:07:58;12.40;;;5.85;;
10473;SDS011;5284;50.446;7.904;2023-08-20T09:13:01;8.38;;;4.90;;
10473;SDS011;5284;50.446;7.904;2023-08-20T09:18:08;14.13;;;6.40;;
10473;SDS011;5284;50.446;7.904;2023-08-20T09:23:12;11.30;;;5.60;;
10473;SDS011;5284;50.446;7.904;2023-08-20T09:28:15;11.13;;;5.88;;
10473;SDS011;5284;50.446;7.904;2023-08-20T09:33:19;20.17;;;5.78;;
10473;SDS011;5284;50.446;7.904;2023-08-20T09:38:24;14.90;;;5.72;;
10473;SDS011;5284;50.446;7.904;2023-08-20T09:43:27;13.23;;;5.55;;
10473;SDS011;5284;50.446;7.904;2023-08-20T09:48:35;9.95;;;5.15;;
10473;SDS011;5284;50.446;7.904;2023-08-20T09:53:43;10.50;;;5.03;;
10473;SDS011;5284;50.446;7.904;2023-08-20T09:58:52;10.57;;;4.88;;
10473;SDS011;5284;50.446;7.904;2023-08-20T10:03:57;8.17;;;4.33;;
10473;SDS011;5284;50.446;7.904;2023-08-20T10:14:05;12.60;;;4.72;;
10473;SDS011;5284;50.446;7.904;2023-08-20T10:19:12;8.07;;;5.05;;
10473;SDS011;5284;50.446;7.904;2023-08-20T10:24:17;13.35;;;5.38;;
10473;SDS011;5284;50.446;7.904;2023-08-20T10:29:34;8.18;;;4.82;;
10473;SDS011;5284;50.446;7.904;2023-08-20T10:34:42;12.00;;;5.60;;
10473;SDS011;5284;50.446;7.904;2023-08-20T10:39:53;13.25;;;5.65;;
10473;SDS011;5284;50.446;7.904;2023-08-20T10:44:57;13.90;;;4.15;;
10473;SDS011;5284;50.446;7.904;2023-08-20T10:50:08;9.38;;;5.00;;
10473;SDS011;5284;50.446;7.904;2023-08-20T10:55:13;9.88;;;4.53;;
10473;SDS011;5284;50.446;7.904;2023-08-20T11:00:17;8.77;;;4.50;;
10473;SDS011;5284;50.446;7.904;2023-08-20T11:05:21;12.02;;;4.28;;
10473;SDS011;5284;50.446;7.904;2023-08-20T11:10:25;9.40;;;4.47;;
10473;SDS011;5284;50.446;7.904;2023-08-20T11:15:29;6.90;;;4.10;;
10473;SDS011;5284;50.446;7.904;2023-08-20T11:20:33;15.07;;;4.40;;
10473;SDS011;5284;50.446;7.904;2023-08-20T11:25:40;14.02;;;3.95;;
10473;SDS011;5284;50.446;7.904;2023-08-20T11:30:45;8.00;;;4.22;;
10473;SDS011;5284;50.446;7.904;2023-08-20T11:35:50;9.63;;;4.20;;
10473;SDS011;5284;50.446;7.904;2023-08-20T11:40:54;6.88;;;3.50;;
10473;SDS011;5284;50.446;7.904;2023-08-20T11:45:58;9.30;;;3.65;;
10473;SDS011;5284;50.446;7.904;2023-08-20T11:51:04;11.07;;;3.55;;
10473;SDS011;5284;50.446;7.904;2023-08-20T11:56:07;4.43;;;3.13;;
10473;SDS011;5284;50.446;7.904;2023-08-20T12:01:18;4.60;;;3.17;;
10473;SDS011;5284;50.446;7.904;2023-08-20T12:06:22;7.87;;;3.20;;
10473;SDS011;5284;50.446;7.904;2023-08-20T12:11:25;4.07;;;2.33;;
10473;SDS011;5284;50.446;7.904;2023-08-20T12:16:29;6.63;;;3.65;;
10473;SDS011;5284;50.446;7.904;2023-08-20T12:21:34;7.53;;;3.40;;
10473;SDS011;5284;50.446;7.904;2023-08-20T12:26:37;5.37;;;3.80;;
10473;SDS011;5284;50.446;7.904;2023-08-20T12:31:41;5.05;;;3.47;;
10473;SDS011;5284;50.446;7.904;2023-08-20T12:36:45;6.25;;;3.30;;
10473;SDS011;5284;50.446;7.904;2023-08-20T12:41:48;4.85;;;3.28;;
10473;SDS011;5284;50.446;7.904;2023-08-20T12:46:51;8.40;;;3.92;;
10473;SDS011;5284;50.446;7.904;2023-08-20T12:51:57;4.53;;;3.25;;
10473;SDS011;5284;50.446;7.904;2023-08-20T12:56:59;8.07;;;2.80;;
10473;SDS011;5284;50.446;7.904;2023-08-20T13:02:04;8.02;;;3.35;;
10473;SDS011;5284;50.446;7.904;2023-08-20T13:07:09;4.55;;;3.15;;
10473;SDS011;5284;50.446;7.904;2023-08-20T13:12:12;5.90;;;3.65;;
10473;SDS011;5284;50.446;7.904;2023-08-20T13:17:16;5.13;;;2.83;;
10473;SDS011;5284;50.446;7.904;2023-08-20T13:22:22;5.53;;;3.38;;
10473;SDS011;5284;50.446;7.904;2023-08-20T13:27:25;5.05;;;3.17;;
10473;SDS011;5284;50.446;7.904;2023-08-20T13:32:28;7.10;;;3.53;;
10473;SDS011;5284;50.446;7.904;2023-08-20T13:37:32;5.40;;;3.20;;
10473;SDS011;5284;50.446;7.904;2023-08-20T13:42:37;4.05;;;3.20;;
10473;SDS011;5284;50.446;7.904;2023-08-20T13:47:41;7.45;;;3.15;;
10473;SDS011;5284;50.446;7.904;2023-08-20T13:52:50;7.95;;;3.38;;
10473;SDS011;5284;50.446;7.904;2023-08-20T13:57:53;6.15;;;3.80;;
10473;SDS011;5284;50.446;7.904;2023-08-20T14:02:57;6.72;;;3.40;;
10473;SDS011;5284;50.446;7.904;2023-08-20T14:08:01;6.28;;;3.08;;
10473;SDS011;5284;50.446;7.904;2023-08-20T14:13:05;5.45;;;3.42;;
10473;SDS011;5284;50.446;7.904;2023-08-20T14:18:08;4.72;;;3.10;;
10473;SDS011;5284;50.446;7.904;2023-08-20T14:23:13;4.85;;;2.80;;
10473;SDS011;5284;50.446;7.904;2023-08-20T14:28:17;8.57;;;2.85;;
10473;SDS011;5284;50.446;7.904;2023-08-20T14:33:20;4.35;;;2.92;;
10473;SDS011;5284;50.446;7.904;2023-08-20T14:38:24;6.63;;;2.72;;
10473;SDS011;5284;50.446;7.904;2023-08-20T14:43:28;6.32;;;2.90;;
10473;SDS011;5284;50.446;7.904;2023-08-20T14:48:32;4.20;;;2.47;;
10473;SDS011;5284;50.446;7.904;2023-08-20T14:53:38;2.95;;;2.55;;
10473;SDS011;5284;50.446;7.904;2023-08-20T14:58:41;5.93;;;2.33;;
10473;SDS011;5284;50.446;7.904;2023-08-20T15:03:44;2.75;;;2.33;;
10473;SDS011;5284;50.446;7.904;2023-08-20T15:08:49;7.68;;;2.55;;
10473;SDS011;5284;50.446;7.904;2023-08-20T15:13:52;3.92;;;3.15;;
10473;SDS011;5284;50.446;7.904;2023-08-20T15:18:54;4.63;;;3.25;;
10473;SDS011;5284;50.446;7.904;2023-08-20T15:23:59;4.97;;;3.25;;
10473;SDS011;5284;50.446;7.904;2023-08-20T15:29:02;5.50;;;4.03;;
10473;SDS011;5284;50.446;7.904;2023-08-20T15:34:04;4.22;;;3.80;;
10473;SDS011;5284;50.446;7.904;2023-08-20T15:39:09;7.22;;;3.92;;
10473;SDS011;5284;50.446;7.904;2023-08-20T15:44:14;4.32;;;3.83;;
10473;SDS011;5284;50.446;7.904;2023-08-20T15:49:17;6.30;;;3.97;;
10473;SDS011;5284;50.446;7.904;2023-08-20T15:54:23;6.50;;;3.70;;
10473;SDS011;5284;50.446;7.904;2023-08-20T15:59:27;4.35;;;3.97;;
10473;SDS011;5284;50.446;7.904;2023-08-20T16:04:30;6.88;;;3.92;;
10473;SDS011;5284;50.446;7.904;2023-08-20T16:09:35;4.63;;;3.95;;
10473;SDS011;5284;50.446;7.904;2023-08-20T16:14:44;9.20;;;3.67;;
10473;SDS011;5284;50.446;7.904;2023-08-20T16:19:49;7.68;;;3.70;;
10473;SDS011;5284;50.446;7.904;2023-08-20T16:24:54;6.18;;;3.45;;
10473;SDS011;5284;50.446;7.904;2023-08-20T16:29:58;3.58;;;3.15;;
10473;SDS011;5284;50.446;7.904;2023-08-20T16:35:01;6.43;;;3.30;;
10473;SDS011;5284;50.446;7.904;2023-08-20T16:40:07;5.88;;;3.53;;
10473;SDS011;5284;50.446;7.904;2023-08-20T16:45:22;4.55;;;3.35;;
10473;SDS011;5284;50.446;7.904;2023-08-20T16:50:25;6.03;;;3.17;;
10473;SDS011;5284;50.446;7.904;2023-08-20T16:55:30;4.15;;;2.60;;
10473;SDS011;5284;50.446;7.904;2023-08-20T17:00:33;6.22;;;3.28;;
10473;SDS011;5284;50.446;7.904;2023-08-20T17:05:37;4.30;;;3.30;;
10473;SDS011;5284;50.446;7.904;2023-08-20T17:10:41;3.55;;;2.60;;
10473;SDS011;5284;50.446;7.904;2023-08-20T17:15:44;3.72;;;2.63;;
10473;SDS011;5284;50.446;7.904;2023-08-20T17:20:48;3.80;;;2.45;;
10473;SDS011;5284;50.446;7.904;2023-08-20T17:25:54;4.13;;;2.53;;
10473;SDS011;5284;50.446;7.904;2023-08-20T17:30:57;14.40;;;3.08;;
10473;SDS011;5284;50.446;7.904;2023-08-20T17:41:06;5.90;;;2.65;;
10473;SDS011;5284;50.446;7.904;2023-08-20T17:46:09;7.37;;;3.30;;
10473;SDS011;5284;50.446;7.904;2023-08-20T17:51:13;5.75;;;2.75;;
10473;SDS011;5284;50.446;7.904;2023-08-20T17:56:17;9.48;;;3.00;;
10473;SDS011;5284;50.446;7.904;2023-08-20T18:01:20;6.50;;;3.45;;
10473;SDS011;5284;50.446;7.904;2023-08-20T18:06:24;4.80;;;3.40;;
10473;SDS011;5284;50.446;7.904;2023-08-20T18:11:28;5.25;;;3.33;;
10473;SDS011;5284;50.446;7.904;2023-08-20T18:16:31;7.07;;;3.38;;
10473;SDS011;5284;50.446;7.904;2023-08-20T18:21:34;8.15;;;3.30;;
10473;SDS011;5284;50.446;7.904;2023-08-20T18:26:39;4.45;;;3.05;;
10473;SDS011;5284;50.446;7.904;2023-08-20T18:31:42;7.95;;;4.00;;
10473;SDS011;5284;50.446;7.904;2023-08-20T18:36:46;6.68;;;3.35;;
10473;SDS011;5284;50.446;7.904;2023-08-20T18:41:52;6.70;;;3.90;;
10473;SDS011;5284;50.446;7.904;2023-08-20T18:46:57;5.68;;;3.90;;
10473;SDS011;5284;50.446;7.904;2023-08-20T18:52:00;10.60;;;4.75;;
10473;SDS011;5284;50.446;7.904;2023-08-20T18:57:05;9.55;;;5.65;;
10473;SDS011;5284;50.446;7.904;2023-08-20T19:02:11;9.40;;;5.07;;
10473;SDS011;5284;50.446;7.904;2023-08-20T19:07:14;8.88;;;4.63;;
10473;SDS011;5284;50.446;7.904;2023-08-20T19:12:19;9.73;;;5.30;;
10473;SDS011;5284;50.446;7.904;2023-08-20T19:17:23;11.02;;;5.40;;
10473;SDS011;5284;50.446;7.904;2023-08-20T19:22:27;11.98;;;5.88;;
10473;SDS011;5284;50.446;7.904;2023-08-20T19:27:31;10.23;;;6.20;;
10473;SDS011;5284;50.446;7.904;2023-08-20T19:32:34;14.52;;;5.47;;
10473;SDS011;5284;50.446;7.904;2023-08-20T19:37:39;16.17;;;5.97;;
10473;SDS011;5284;50.446;7.904;2023-08-20T19:42:43;9.13;;;6.25;;
10473;SDS011;5284;50.446;7.904;2023-08-20T19:47:46;16.90;;;7.05;;
10473;SDS011;5284;50.446;7.904;2023-08-20T19:52:49;17.27;;;6.18;;
10473;SDS011;5284;50.446;7.904;2023-08-20T19:57:55;15.23;;;6.85;;
10473;SDS011;5284;50.446;7.904;2023-08-20T20:03:00;15.52;;;6.13;;
10473;SDS011;5284;50.446;7.904;2023-08-20T20:08:03;11.82;;;6.65;;
10473;SDS011;5284;50.446;7.904;2023-08-20T20:13:10;12.33;;;6.40;;
10473;SDS011;5284;50.446;7.904;2023-08-20T20:18:13;16.10;;;7.00;;
10473;SDS011;5284;50.446;7.904;2023-08-20T20:23:16;17.45;;;6.70;;
10473;SDS011;5284;50.446;7.904;2023-08-20T20:28:20;15.20;;;6.97;;
10473;SDS011;5284;50.446;7.904;2023-08-20T20:33:23;16.55;;;7.47;;
10473;SDS011;5284;50.446;7.904;2023-08-20T20:38:26;11.25;;;7.00;;
10473;SDS011;5284;50.446;7.904;2023-08-20T20:43:32;14.48;;;7.20;;
10473;SDS011;5284;50.446;7.904;2023-08-20T20:48:35;19.95;;;8.45;;
10473;SDS011;5284;50.446;7.904;2023-08-20T20:53:38;18.20;;;7.57;;
10473;SDS011;5284;50.446;7.904;2023-08-20T20:58:42;16.60;;;7.97;;
10473;SDS011;5284;50.446;7.904;2023-08-20T21:03:45;13.55;;;7.60;;
10473;SDS011;5284;50.446;7.904;2023-08-20T21:08:49;11.13;;;7.80;;
10473;SDS011;5284;50.446;7.904;2023-08-20T21:13:53;15.63;;;6.70;;
10473;SDS011;5284;50.446;7.904;2023-08-20T21:18:56;14.80;;;7.75;;
10473;SDS011;5284;50.446;7.904;2023-08-20T21:24:00;21.23;;;8.70;;
10473;SDS011;5284;50.446;7.904;2023-08-20T21:29:05;22.25;;;8.40;;
10473;SDS011;5284;50.446;7.904;2023-08-20T21:34:08;15.05;;;7.78;;
10473;SDS011;5284;50.446;7.904;2023-08-20T21:39:12;15.52;;;7.65;;
10473;SDS011;5284;50.446;7.904;2023-08-20T21:44:18;19.40;;;9.23;;
10473;SDS011;5284;50.446;7.904;2023-08-20T21:49:21;13.13;;;7.68;;
10473;SDS011;5284;50.446;7.904;2023-08-20T21:54:25;14.23;;;7.40;;
10473;SDS011;5284;50.446;7.904;2023-08-20T21:59:30;13.65;;;6.78;;
10473;SDS011;5284;50.446;7.904;2023-08-20T22:04:33;17.80;;;8.02;;
10473;SDS011;5284;50.446;7.904;2023-08-20T22:09:36;19.10;;;8.50;;
10473;SDS011;5284;50.446;7.904;2023-08-20T22:14:40;19.10;;;9.35;;
10473;SDS011;5284;50.446;7.904;2023-08-20T22:19:45;18.48;;;8.05;;
10473;SDS011;5284;50.446;7.904;2023-08-20T22:24:48;26.13;;;8.77;;
10473;SDS011;5284;50.446;7.904;2023-08-20T22:29:53;16.58;;;9.10;;
10473;SDS011;5284;50.446;7.904;2023-08-20T22:34:56;15.05;;;7.45;;
10473;SDS011;5284;50.446;7.904;2023-08-20T22:39:59;20.02;;;7.88;;
10473;SDS011;5284;50.446;7.904;2023-08-20T22:45:04;13.63;;;8.25;;
10473;SDS011;5284;50.446;7.904;2023-08-20T22:50:08;14.68;;;8.00;;
10473;SDS011;5284;50.446;7.904;2023-08-20T22:55:11;20.40;;;8.27;;
10473;SDS011;5284;50.446;7.904;2023-08-20T23:00:17;13.50;;;7.03;;
10473;SDS011;5284;50.446;7.904;2023-08-20T23:05:22;11.77;;;7.35;;
10473;SDS011;5284;50.446;7.904;2023-08-20T23:10:25;18.17;;;8.38;;
10473;SDS011;5284;50.446;7.904;2023-08-20T23:15:30;22.15;;;7.60;;
10473;SDS011;5284;50.446;7.904;2023-08-20T23:20:33;18.75;;;8.23;;
10473;SDS011;5284;50.446;7.904;2023-08-20T23:25:35;14.27;;;7.22;;
10473;SDS011;5284;50.446;7.904;2023-08-20T23:30:42;17.02;;;8.55;;
10473;SDS011;5284;50.446;7.904;2023-08-20T23:35:46;15.32;;;8.43;;
10473;SDS011;5284;50.446;7.904;2023-08-20T23:40:50;17.08;;;8.43;;
10473;SDS011;5284;50.446;7.904;2023-08-20T23:45:54;15.07;;;8.63;;
10473;SDS011;5284;50.446;7.904;2023-08-20T23:50:57;18.60;;;8.60;;
10473;SDS011;5284;50.446;7.904;2023-08-20T23:56:02;15.77;;;8.00;;
